Time;durP1;ratioP1;P1;durP2;ratioP2;P2;SDS_P1;SDS_P2;PMS_P1;PMS_P2;Temp;Humidity;BMP_temperature;BMP_pressure;BME280_temperature;BME280_humidity;BME280_pressure;Samples;Min_cycle;Max_cycle;Signal;HPM_P1;HPM_P2
2020/12/19 05:23:35;;;;;;;7.80;4.07;;;;;;;4.81;77.51;100133.44;3797330;23;20074;-83
2020/12/19 05:43:23;;;;;;;13.65;6.65;;;;;;;4.58;77.92;100137.63;3605809;24;20029;-82
2020/12/19 05:45:32;;;;;;;11.98;5.38;;;;;;;4.61;77.98;100128.66;3659052;24;20034;-82
2020/12/19 06:15:39;;;;;;;9.85;5.18;;;;;;;4.41;77.73;100136.16;3832792;23;20018;-82
2020/12/19 06:17:17;;;;;;;9.48;5.25;;;;;;;4.49;77.94;100149.72;3836589;23;20060;-81
2020/12/19 06:20:33;;;;;;;10.13;6.07;;;;;;;4.57;77.79;100148.34;3209128;27;20719;-80
2020/12/19 06:22:06;;;;;;;10.02;6.72;;;;;;;4.60;77.73;100148.16;3176816;27;20046;-80
2020/12/19 06:23:38;;;;;;;14.75;6.38;;;;;;;4.56;77.90;100147.50;3188080;27;20547;-77
2020/12/19 06:25:09;;;;;;;13.52;6.18;;;;;;;4.59;77.68;100144.63;3184045;27;20069;-76
2020/12/19 06:26:40;;;;;;;11.85;7.35;;;;;;;4.53;77.85;100148.53;3179604;27;20079;-76
2020/12/19 06:28:13;;;;;;;11.82;6.47;;;;;;;4.51;77.81;100155.75;3185479;27;20039;-80
2020/12/19 06:29:44;;;;;;;12.55;7.03;;;;;;;4.52;77.77;100159.25;3178884;27;20048;-77
2020/12/19 06:32:48;;;;;;;9.63;5.55;;;;;;;4.53;77.67;100155.66;3165042;28;20063;-77
2020/12/19 06:34:20;;;;;;;8.93;5.43;;;;;;;4.49;77.73;100162.94;3175259;27;20043;-77
2020/12/19 06:35:53;;;;;;;7.95;4.28;;;;;;;4.48;77.76;100160.41;3177976;27;20089;-76
2020/12/19 06:38:57;;;;;;;7.97;4.28;;;;;;;4.39;77.92;100158.38;3151736;28;20670;-78
2020/12/19 06:40:38;;;;;;;8.77;5.13;;;;;;;4.34;77.68;100154.22;3170222;28;20047;-78
2020/12/19 06:42:27;;;;;;;8.70;4.85;;;;;;;4.34;77.87;100156.03;3177521;27;20078;-77
2020/12/19 06:44:05;;;;;;;8.90;4.80;;;;;;;4.39;77.75;100161.88;3176789;27;20048;-78
2020/12/19 06:45:36;;;;;;;11.77;7.15;;;;;;;4.40;77.82;100162.69;3172751;27;20070;-77
2020/12/19 06:47:19;;;;;;;11.27;6.95;;;;;;;4.29;77.56;100166.06;3176374;27;20074;-77
2020/12/19 06:48:50;;;;;;;8.48;4.53;;;;;;;4.33;77.89;100162.28;3173328;27;20086;-78
2020/12/19 06:50:23;;;;;;;9.00;4.63;;;;;;;4.36;77.83;100162.94;3172345;27;20430;-77
2020/12/19 06:53:54;;;;;;;9.82;5.32;;;;;;;4.34;77.20;100153.41;3157745;27;20361;-78
2020/12/19 06:55:28;;;;;;;9.70;6.30;;;;;;;4.39;77.56;100150.44;3140969;28;20161;-80
2020/12/19 06:57:04;;;;;;;6.80;4.20;;;;;;;4.35;77.35;100157.72;3143018;28;20079;-80
2020/12/19 06:58:42;;;;;;;8.20;4.80;;;;;;;4.33;77.42;100151.69;3140183;28;20041;-76
2020/12/19 07:00:17;;;;;;;9.50;5.70;;;;;;;4.39;77.42;100163.69;3153025;28;20060;-77
2020/12/19 07:01:48;;;;;;;9.23;4.75;;;;;;;4.39;77.54;100167.16;3151562;28;20072;-78
2020/12/19 07:03:35;;;;;;;9.40;5.88;;;;;;;4.31;77.29;100158.88;3155566;27;20079;-77
2020/12/19 07:05:19;;;;;;;8.70;4.05;;;;;;;4.30;77.48;100162.47;3155652;28;20056;-80
2020/12/19 07:07:01;;;;;;;10.93;5.35;;;;;;;4.29;77.59;100163.44;3150978;28;20062;-76
2020/12/19 07:08:34;;;;;;;8.50;4.95;;;;;;;4.31;77.62;100158.88;3140942;28;20437;-77
2020/12/19 07:10:06;;;;;;;9.85;5.70;;;;;;;4.32;77.71;100165.88;3144483;28;20099;-77
2020/12/19 07:11:41;;;;;;;13.68;6.40;;;;;;;4.29;77.27;100166.94;3144720;28;20068;-77
2020/12/19 07:13:13;;;;;;;11.98;6.93;;;;;;;4.30;77.71;100173.06;3154647;28;20493;-77
2020/12/19 07:14:44;;;;;;;11.30;6.90;;;;;;;4.27;77.56;100174.13;3141459;28;20111;-77
2020/12/19 07:16:46;;;;;;;11.30;6.93;;;;;;;4.22;77.18;100181.50;3145586;28;20048;-78
2020/12/19 07:18:25;;;;;;;10.15;5.38;;;;;;;4.24;77.08;100176.97;3143159;28;20045;-77
2020/12/19 07:19:59;;;;;;;6.88;4.35;;;;;;;4.26;77.45;100174.19;3149658;28;20750;-77
2020/12/19 07:21:31;;;;;;;7.35;4.45;;;;;;;4.25;77.60;100180.47;3155163;27;20072;-76
2020/12/19 07:23:02;;;;;;;9.43;4.38;;;;;;;4.18;77.52;100172.09;3147722;28;20051;-78
2020/12/19 07:24:33;;;;;;;8.75;5.03;;;;;;;4.19;77.63;100179.06;3144533;28;20094;-76
2020/12/19 07:26:06;;;;;;;9.32;5.22;;;;;;;4.19;77.68;100171.97;3146665;28;20045;-76
2020/12/19 07:27:37;;;;;;;9.02;5.38;;;;;;;4.21;77.83;100180.66;3145203;28;20075;-77
2020/12/19 07:29:17;;;;;;;8.88;4.78;;;;;;;4.24;77.45;100184.06;3154190;28;20052;-77
2020/12/19 07:30:55;;;;;;;7.60;4.28;;;;;;;4.18;77.30;100180.84;3155482;27;20059;-78
2020/12/19 07:32:29;;;;;;;7.38;4.63;;;;;;;4.20;77.53;100178.97;3142567;28;20084;-79
2020/12/19 07:34:01;;;;;;;12.05;4.28;;;;;;;4.19;77.33;100179.06;3152370;28;20043;-79
2020/12/19 07:35:32;;;;;;;7.28;3.75;;;;;;;4.17;77.49;100187.09;3163658;28;20052;-79
2020/12/19 07:37:04;;;;;;;6.25;3.65;;;;;;;4.19;77.44;100179.91;3153470;27;20575;-80
2020/12/19 07:38:38;;;;;;;7.20;3.70;;;;;;;4.25;77.38;100185.78;3159200;28;20078;-78
2020/12/19 07:40:11;;;;;;;8.52;4.47;;;;;;;4.26;77.40;100187.44;3153516;27;20060;-79
2020/12/19 07:41:44;;;;;;;8.32;5.07;;;;;;;4.21;77.28;100188.59;3135324;28;20072;-80
2020/12/19 07:43:18;;;;;;;10.73;5.97;;;;;;;4.10;77.34;100187.63;3157059;27;20379;-79
2020/12/19 07:44:49;;;;;;;11.60;5.00;;;;;;;4.06;77.53;100186.97;3155623;28;20040;-80
2020/12/19 07:46:20;;;;;;;10.98;5.90;;;;;;;4.04;77.73;100188.84;3147834;28;20122;-77
2020/12/19 07:47:51;;;;;;;9.27;5.40;;;;;;;4.04;77.50;100191.50;3147671;28;20113;-79
2020/12/19 07:49:24;;;;;;;8.63;5.10;;;;;;;4.04;77.70;100189.69;3151059;27;20550;-78
2020/12/19 07:50:55;;;;;;;12.30;5.65;;;;;;;4.07;77.64;100193.94;3140701;28;20408;-79
2020/12/19 07:52:48;;;;;;;7.50;4.60;;;;;;;4.12;77.36;100191.84;3147587;28;20075;-79
2020/12/19 07:54:30;;;;;;;9.05;5.47;;;;;;;4.16;77.38;100198.63;3153177;28;20573;-78
2020/12/19 07:56:09;;;;;;;9.85;5.18;;;;;;;4.16;77.30;100192.50;3153550;27;20181;-78
2020/12/19 07:57:43;;;;;;;7.68;4.53;;;;;;;4.20;77.18;100196.66;3144483;28;20040;-80
2020/12/19 07:59:17;;;;;;;9.38;5.60;;;;;;;4.23;77.27;100196.44;3146340;28;20048;-77
2020/12/19 08:00:49;;;;;;;8.90;5.13;;;;;;;4.22;77.01;100198.25;3157269;28;20094;-78
2020/12/19 08:02:21;;;;;;;11.38;5.80;;;;;;;4.22;77.19;100195.59;3148157;28;20040;-78
2020/12/19 08:04:01;;;;;;;11.25;6.18;;;;;;;4.24;76.58;100189.38;3151145;28;20118;-79
2020/12/19 08:05:37;;;;;;;8.23;5.03;;;;;;;4.20;77.10;100200.13;3145789;28;20615;-78
2020/12/19 08:07:09;;;;;;;10.15;6.13;;;;;;;4.24;77.16;100213.19;3142458;28;20055;-78
2020/12/19 08:08:39;;;;;;;12.50;7.00;;;;;;;4.25;76.92;100207.78;3145471;28;20040;-78
2020/12/19 08:10:12;;;;;;;11.50;6.13;;;;;;;4.31;76.88;100211.81;3141857;28;20598;-78
2020/12/19 08:11:44;;;;;;;10.82;5.00;;;;;;;4.30;76.68;100215.41;3147434;28;20064;-78
2020/12/19 08:13:17;;;;;;;12.02;6.65;;;;;;;4.34;76.75;100206.34;3142791;28;20036;-78
2020/12/19 08:14:52;;;;;;;10.07;4.97;;;;;;;4.33;76.44;100215.22;3148818;28;20141;-78
2020/12/19 08:16:27;;;;;;;11.48;6.20;;;;;;;4.33;76.41;100204.63;3140662;28;20562;-79
2020/12/19 08:18:04;;;;;;;11.13;5.53;;;;;;;4.34;76.69;100201.03;3140278;28;20044;-78
2020/12/19 08:19:39;;;;;;;15.20;5.30;;;;;;;4.41;76.64;100204.13;3144972;28;20064;-78
2020/12/19 08:22:43;;;;;;;11.80;6.90;;;;;;;4.28;76.89;100206.72;3133847;28;20381;-77
2020/12/19 08:24:14;;;;;;;10.25;6.22;;;;;;;4.23;76.99;100207.03;3142619;28;20056;-77
2020/12/19 08:25:51;;;;;;;10.95;6.38;;;;;;;4.21;76.99;100207.13;3145396;28;20044;-77
2020/12/19 08:27:57;;;;;;;10.43;6.55;;;;;;;4.21;76.66;100195.69;3147319;28;20047;-77
2020/12/19 08:31:00;;;;;;;10.30;6.13;;;;;;;4.28;76.81;100206.72;3110817;28;20180;-78
2020/12/19 08:32:32;;;;;;;14.05;6.85;;;;;;;4.28;76.88;100212.00;3132467;28;20041;-79
2020/12/19 08:34:05;;;;;;;13.20;7.85;;;;;;;4.27;77.09;100210.31;3145732;28;20044;-77
2020/12/19 08:37:07;;;;;;;13.70;7.10;;;;;;;4.26;76.99;100213.91;3109824;28;20087;-78
2020/12/19 08:38:38;;;;;;;11.65;6.82;;;;;;;4.31;76.82;100214.47;3135575;28;20438;-78
2020/12/19 08:40:12;;;;;;;13.77;7.63;;;;;;;4.33;76.64;100209.94;3144696;28;20044;-78
2020/12/19 08:41:44;;;;;;;10.73;6.80;;;;;;;4.38;76.77;100218.41;3148079;28;20418;-79
2020/12/19 08:43:17;;;;;;;13.35;7.68;;;;;;;4.34;76.77;100217.75;3146230;28;20090;-77
2020/12/19 08:44:51;;;;;;;13.88;6.75;;;;;;;4.37;76.90;100224.66;3148529;28;20048;-78
2020/12/19 08:46:30;;;;;;;11.02;7.28;;;;;;;4.37;76.69;100222.00;3145595;28;20583;-77
2020/12/19 08:48:05;;;;;;;11.88;7.20;;;;;;;4.42;76.80;100224.34;3146435;28;20394;-78
2020/12/19 08:51:09;;;;;;;10.95;6.82;;;;;;;4.52;76.66;100220.13;3142787;28;21218;-76
2020/12/19 08:54:12;;;;;;;10.63;6.47;;;;;;;4.64;76.51;100221.97;3118511;28;20943;-77
2020/12/19 08:55:46;;;;;;;9.05;6.20;;;;;;;4.72;76.21;100217.97;3137494;28;20476;-76
2020/12/19 08:57:36;;;;;;;9.73;6.00;;;;;;;4.72;75.75;100224.13;3143491;28;20052;-77
2020/12/19 08:59:08;;;;;;;10.23;6.10;;;;;;;4.79;76.10;100222.75;3140023;28;20053;-77
2020/12/19 09:00:39;;;;;;;10.52;6.60;;;;;;;4.86;75.88;100223.19;3141108;28;20425;-78
2020/12/19 09:02:16;;;;;;;10.60;4.90;;;;;;;4.88;75.89;100225.75;3137089;28;20057;-77
2020/12/19 09:03:48;;;;;;;8.70;5.93;;;;;;;4.96;75.65;100218.94;3138242;28;20292;-77
2020/12/19 09:05:57;;;;;;;11.85;6.75;;;;;;;5.00;74.94;100220.44;3139464;28;20052;-77
2020/12/19 09:12:45;;;;;;;10.73;5.47;;;;;;;5.32;74.59;100224.47;3125819;28;20049;-77
2020/12/19 09:14:17;;;;;;;9.07;5.60;;;;;;;5.43;74.37;100226.41;3128657;28;20049;-77
2020/12/19 09:15:50;;;;;;;11.25;6.00;;;;;;;5.53;74.31;100231.91;3129432;28;20094;-78
2020/12/19 09:20:45;;;;;;;8.93;5.57;;;;;;;5.75;73.68;100226.78;3161525;27;20738;-77
2020/12/19 09:22:24;;;;;;;11.77;5.78;;;;;;;5.87;72.75;100224.19;3148226;27;20074;-76
2020/12/19 09:23:58;;;;;;;10.30;5.88;;;;;;;6.00;72.89;100229.50;3144808;28;20069;-76
2020/12/19 09:27:14;;;;;;;8.45;4.45;;;;;;;6.21;72.70;100232.41;3191515;27;20365;-79
2020/12/19 09:28:46;;;;;;;8.43;5.70;;;;;;;6.36;72.19;100225.97;3171207;27;20083;-77
2020/12/19 09:30:17;;;;;;;9.07;5.70;;;;;;;6.52;71.86;100230.13;3150941;28;21319;-77
2020/12/19 09:31:48;;;;;;;10.02;5.43;;;;;;;6.74;71.49;100229.41;3154134;28;20036;-77
2020/12/19 09:33:22;;;;;;;8.85;5.18;;;;;;;7.05;70.76;100232.34;3160245;28;20055;-77
2020/12/19 09:34:53;;;;;;;8.43;5.03;;;;;;;7.36;70.10;100223.84;3158734;27;20052;-77
2020/12/19 09:36:25;;;;;;;8.32;4.85;;;;;;;7.67;69.47;100216.09;3160374;28;20059;-77
2020/12/19 09:37:56;;;;;;;10.00;5.70;;;;;;;7.91;67.89;100219.47;3157930;28;20044;-77
2020/12/19 09:39:27;;;;;;;8.85;5.88;;;;;;;8.26;67.67;100221.06;3167323;28;20044;-77
2020/12/19 09:40:59;;;;;;;24.73;15.25;;;;;;;8.63;66.73;100219.03;3166085;28;20052;-77
2020/12/19 09:42:32;;;;;;;9.95;6.60;;;;;;;8.90;65.22;100215.88;3167389;28;20497;-77
2020/12/19 09:44:03;;;;;;;8.68;4.93;;;;;;;9.25;65.00;100211.19;3167302;28;20052;-77
2020/12/19 09:45:35;;;;;;;7.90;4.70;;;;;;;9.64;64.00;100214.88;3167719;28;20115;-77
2020/12/19 09:47:09;;;;;;;7.60;4.60;;;;;;;9.95;63.06;100201.47;3166420;27;20135;-78
2020/12/19 09:48:46;;;;;;;8.32;5.38;;;;;;;10.08;60.47;100201.22;3169316;28;20154;-77
2020/12/19 09:50:16;;;;;;;8.88;5.80;;;;;;;10.40;61.50;100207.34;3153212;28;20067;-77
2020/12/19 09:51:48;;;;;;;9.90;6.22;;;;;;;10.54;60.88;100206.06;3165800;28;20114;-78
2020/12/19 09:53:19;;;;;;;11.15;5.40;;;;;;;10.90;59.97;100198.31;3158712;28;20059;-78
2020/12/19 09:54:52;;;;;;;9.07;5.10;;;;;;;10.91;59.10;100200.00;3168868;28;20410;-79
2020/12/19 09:56:24;;;;;;;8.48;4.75;;;;;;;11.03;58.54;100206.03;3161912;28;20051;-78
2020/12/19 09:57:56;;;;;;;9.10;5.55;;;;;;;11.06;58.33;100195.03;3165452;28;20044;-77
2020/12/19 09:59:28;;;;;;;7.05;4.55;;;;;;;11.45;57.79;100196.75;3163216;27;20051;-78
2020/12/19 10:00:59;;;;;;;9.40;5.03;;;;;;;11.76;56.71;100186.59;3168490;28;20127;-78
2020/12/19 10:02:30;;;;;;;8.27;5.22;;;;;;;11.98;56.16;100190.75;3161357;28;20529;-79
2020/12/19 10:04:01;;;;;;;9.73;5.80;;;;;;;12.05;55.31;100192.81;3168209;28;20044;-78
2020/12/19 10:05:36;;;;;;;7.00;4.15;;;;;;;12.38;54.78;100185.09;3168352;28;20040;-77
2020/12/19 10:07:07;;;;;;;7.18;4.68;;;;;;;12.44;54.60;100179.97;3165084;28;20043;-78
2020/12/19 10:08:38;;;;;;;9.35;4.57;;;;;;;12.72;53.87;100176.34;3167121;28;20058;-78
2020/12/19 10:11:57;;;;;;;6.43;4.05;;;;;;;12.45;53.83;100180.81;3177948;27;20374;-78
2020/12/19 10:13:28;;;;;;;7.78;4.85;;;;;;;12.52;53.61;100181.88;3154512;27;20056;-79
2020/12/19 10:15:00;;;;;;;8.63;5.20;;;;;;;12.59;53.22;100172.22;3137994;28;20076;-79
2020/12/19 10:18:17;;;;;;;8.73;4.78;;;;;;;13.13;51.31;100162.38;3220490;27;20351;-79
2020/12/19 10:19:48;;;;;;;9.40;5.80;;;;;;;13.21;51.15;100165.97;3209920;27;20065;-79
2020/12/19 10:22:50;;;;;;;7.90;4.90;;;;;;;13.46;50.60;100163.41;3176554;28;20143;-79
2020/12/19 10:24:21;;;;;;;8.43;5.18;;;;;;;13.37;50.51;100162.50;3190660;27;20062;-78
2020/12/19 10:27:37;;;;;;;8.73;5.00;;;;;;;13.67;49.52;100154.13;3192032;27;20350;-80
2020/12/19 10:29:08;;;;;;;9.57;5.68;;;;;;;13.79;49.35;100151.97;3154691;28;20560;-80
2020/12/19 10:30:39;;;;;;;8.20;5.55;;;;;;;13.80;48.88;100159.84;3150047;28;20048;-79
2020/12/19 10:32:13;;;;;;;7.40;5.15;;;;;;;14.04;48.23;100156.38;3147221;28;20040;-79
2020/12/19 10:33:43;;;;;;;6.78;3.78;;;;;;;14.12;48.45;100146.69;3157674;28;20132;-80
2020/12/19 10:35:15;;;;;;;7.72;4.70;;;;;;;14.33;48.18;100148.88;3154552;28;20048;-80
2020/12/19 10:36:50;;;;;;;9.63;5.88;;;;;;;14.41;45.96;100145.34;3149258;28;20106;-79
2020/12/19 10:38:21;;;;;;;8.77;5.30;;;;;;;14.55;47.31;100158.13;3149196;28;20494;-78
2020/12/19 10:39:53;;;;;;;7.40;4.53;;;;;;;14.77;46.95;100153.94;3149711;28;20096;-79
2020/12/19 10:41:24;;;;;;;5.82;3.72;;;;;;;14.86;47.04;100144.03;3142131;28;20071;-81
2020/12/19 10:42:57;;;;;;;7.25;4.75;;;;;;;14.98;46.50;100147.19;3145060;28;20048;-80
2020/12/19 10:44:34;;;;;;;7.72;4.80;;;;;;;15.06;44.71;100139.09;3143124;28;20128;-80
2020/12/19 10:46:06;;;;;;;9.05;5.32;;;;;;;15.09;46.14;100138.75;3144418;27;20495;-79
2020/12/19 10:47:38;;;;;;;7.10;4.70;;;;;;;15.13;46.01;100145.47;3141492;28;20090;-80
2020/12/19 10:49:09;;;;;;;7.57;4.55;;;;;;;15.26;45.82;100138.72;3144902;28;20113;-80
2020/12/19 10:50:40;;;;;;;9.18;5.35;;;;;;;15.02;45.89;100131.53;3143818;28;20049;-79
2020/12/19 10:57:43;;;;;;;8.05;5.80;;;;;;;14.02;47.69;100141.44;3193309;27;20419;-81
2020/12/19 10:59:14;;;;;;;10.68;6.13;;;;;;;14.00;47.21;100121.94;3172095;27;20044;-81
2020/12/19 11:00:45;;;;;;;8.60;5.45;;;;;;;13.70;47.75;100126.91;3168861;28;20109;-80
2020/12/19 11:02:19;;;;;;;7.80;4.43;;;;;;;13.31;48.43;100130.09;3163055;28;20058;-79
2020/12/19 11:03:51;;;;;;;8.15;4.93;;;;;;;13.04;48.96;100143.53;3167962;28;20068;-80
2020/12/19 11:05:23;;;;;;;8.10;5.05;;;;;;;12.66;49.92;100134.06;3167762;27;20047;-79
2020/12/19 11:06:54;;;;;;;9.55;5.35;;;;;;;12.48;50.08;100142.97;3160680;28;20129;-79
2020/12/19 11:08:42;;;;;;;8.15;5.72;;;;;;;12.23;50.46;100145.44;3145148;28;20458;-79
2020/12/19 11:10:14;;;;;;;7.93;5.47;;;;;;;11.86;51.55;100144.53;3146275;28;20041;-79
2020/12/19 11:12:10;;;;;;;7.05;4.57;;;;;;;11.55;52.06;100147.53;3160512;28;20043;-79
2020/12/19 11:13:58;;;;;;;8.98;5.30;;;;;;;11.25;52.82;100145.97;3154693;28;20052;-78
2020/12/19 11:15:45;;;;;;;14.15;5.55;;;;;;;11.04;53.25;100148.84;3156707;28;20052;-78
2020/12/19 11:17:34;;;;;;;9.27;5.90;;;;;;;10.84;53.74;100146.22;3155355;28;20048;-79
2020/12/19 11:19:25;;;;;;;11.50;5.30;;;;;;;10.65;54.28;100136.44;3155606;28;20048;-78
2020/12/19 11:32:44;;;;;;;6.40;3.40;;;;;;;9.77;56.71;100128.38;3169583;27;20366;-80
2020/12/19 11:34:16;;;;;;;6.80;3.63;;;;;;;9.77;56.74;100123.84;3167416;28;20111;-80
2020/12/19 11:35:46;;;;;;;7.30;4.25;;;;;;;9.77;56.82;100129.19;3184276;27;20074;-80
2020/12/19 11:37:18;;;;;;;9.00;4.18;;;;;;;9.70;56.93;100120.06;3179904;27;20047;-81
2020/12/19 11:38:49;;;;;;;7.20;3.55;;;;;;;9.70;57.06;100117.38;3181187;27;20039;-79
2020/12/19 11:40:20;;;;;;;6.47;3.33;;;;;;;9.71;57.17;100107.53;3169366;27;25000;-79
2020/12/19 11:41:53;;;;;;;5.20;3.35;;;;;;;9.70;57.04;100113.84;3165989;28;20036;-78
2020/12/19 11:43:24;;;;;;;8.48;4.32;;;;;;;9.63;57.23;100113.59;3169549;27;20044;-80
2020/12/19 11:44:56;;;;;;;8.82;4.32;;;;;;;9.67;57.43;100117.66;3179195;27;20252;-78
2020/12/19 11:46:28;;;;;;;6.53;3.83;;;;;;;9.67;57.40;100112.31;3169231;27;20127;-79
2020/12/19 11:48:02;;;;;;;8.65;5.43;;;;;;;9.55;57.67;100111.59;3171899;28;20036;-80
2020/12/19 11:49:34;;;;;;;8.77;4.95;;;;;;;9.39;58.24;100114.78;3169573;28;20073;-78
2020/12/19 11:51:05;;;;;;;11.20;5.10;;;;;;;9.39;58.30;100120.09;3187561;27;20039;-78
2020/12/19 11:52:36;;;;;;;7.22;4.18;;;;;;;9.48;58.14;100116.63;3173830;27;20067;-77
2020/12/19 11:54:12;;;;;;;8.40;4.65;;;;;;;9.49;58.08;100106.81;3178398;28;20047;-77
2020/12/19 11:55:44;;;;;;;8.73;4.70;;;;;;;9.43;58.18;100105.53;3170475;28;20391;-78
2020/12/19 11:57:15;;;;;;;6.75;3.90;;;;;;;9.46;58.18;100105.22;3170120;28;20071;-78
2020/12/19 11:58:46;;;;;;;8.35;4.95;;;;;;;9.38;58.45;100099.72;3178475;28;20055;-78
2020/12/19 12:00:17;;;;;;;8.75;5.25;;;;;;;9.29;58.85;100097.88;3181398;27;20062;-79
2020/12/19 12:01:49;;;;;;;7.90;4.82;;;;;;;9.25;59.14;100096.47;3166514;28;20041;-79
2020/12/19 12:03:21;;;;;;;10.00;4.30;;;;;;;9.27;59.27;100098.03;3167695;28;20075;-77
2020/12/19 12:04:52;;;;;;;10.05;5.78;;;;;;;9.15;59.65;100093.75;3169479;28;20089;-79
2020/12/19 12:06:28;;;;;;;12.75;6.18;;;;;;;9.09;60.17;100084.47;3170580;27;20051;-77
2020/12/19 12:08:00;;;;;;;9.55;5.03;;;;;;;9.12;60.25;100097.53;3180662;27;20051;-77
2020/12/19 12:09:31;;;;;;;9.43;4.80;;;;;;;9.19;60.15;100093.34;3181183;27;20047;-77
2020/12/19 12:11:09;;;;;;;6.55;3.55;;;;;;;9.29;59.85;100098.75;3177041;27;20502;-77
2020/12/19 12:12:41;;;;;;;8.27;3.85;;;;;;;9.33;59.89;100096.66;3176641;28;20525;-79
2020/12/19 12:14:13;;;;;;;8.93;4.95;;;;;;;9.35;59.96;100090.19;3173460;28;20096;-79
2020/12/19 12:15:44;;;;;;;7.72;4.70;;;;;;;9.46;60.01;100099.06;3177125;28;20047;-81
2020/12/19 12:17:15;;;;;;;7.97;4.10;;;;;;;9.54;59.75;100098.41;3182847;27;20043;-79
2020/12/19 12:18:47;;;;;;;8.32;4.70;;;;;;;9.59;59.70;100093.47;3195148;27;20043;-78
2020/12/19 12:20:21;;;;;;;7.32;3.83;;;;;;;9.61;59.74;100088.84;3184709;27;20048;-80
2020/12/19 12:21:52;;;;;;;9.20;5.05;;;;;;;9.60;59.76;100088.00;3183272;27;20452;-80
2020/12/19 12:23:23;;;;;;;7.63;4.35;;;;;;;9.65;59.89;100083.09;3177883;27;20047;-80
2020/12/19 12:24:54;;;;;;;5.72;3.22;;;;;;;9.74;59.71;100075.25;3182106;27;20410;-80
2020/12/19 12:26:28;;;;;;;9.27;4.90;;;;;;;9.70;59.88;100069.34;3181316;27;20039;-80
2020/12/19 12:27:59;;;;;;;9.45;4.93;;;;;;;9.63;60.07;100076.22;3177423;28;20036;-80
2020/12/19 12:29:30;;;;;;;11.77;4.85;;;;;;;9.72;59.95;100074.53;3175192;28;20051;-80
2020/12/19 12:31:02;;;;;;;7.63;3.97;;;;;;;9.75;59.92;100064.41;3179480;27;20052;-80
2020/12/19 12:32:33;;;;;;;8.32;5.07;;;;;;;9.71;60.00;100064.81;3170825;28;20258;-79
2020/12/19 12:34:05;;;;;;;7.05;4.25;;;;;;;9.68;59.94;100066.78;3166306;28;20548;-79
2020/12/19 12:35:38;;;;;;;6.90;4.25;;;;;;;9.73;59.69;100060.19;3166614;28;20068;-78
2020/12/19 12:37:13;;;;;;;8.57;4.25;;;;;;;9.74;59.52;100062.72;3177266;27;20063;-78
2020/12/19 12:38:43;;;;;;;7.22;4.40;;;;;;;9.77;59.66;100058.94;3179476;27;20126;-79
2020/12/19 12:40:15;;;;;;;6.65;4.50;;;;;;;9.79;59.68;100062.31;3179803;28;20402;-79
2020/12/19 12:41:46;;;;;;;6.82;4.00;;;;;;;9.83;59.63;100059.22;3174372;27;20124;-79
2020/12/19 12:43:18;;;;;;;7.63;4.55;;;;;;;9.86;59.60;100067.94;3174568;28;20386;-79
2020/12/19 12:44:51;;;;;;;8.35;4.70;;;;;;;9.88;59.87;100071.31;3163339;27;20067;-79
2020/12/19 12:46:22;;;;;;;6.78;4.32;;;;;;;10.00;59.28;100075.53;3170479;28;20047;-77
2020/12/19 12:47:54;;;;;;;7.13;3.80;;;;;;;10.08;59.32;100067.66;3178690;27;20063;-79
2020/12/19 12:49:26;;;;;;;8.30;3.15;;;;;;;10.15;59.29;100068.78;3168496;28;20054;-79
2020/12/19 12:50:57;;;;;;;5.60;3.10;;;;;;;10.20;59.22;100075.53;3186039;27;20050;-79
2020/12/19 12:52:28;;;;;;;5.53;3.00;;;;;;;10.24;59.24;100066.25;3169556;27;20051;-79
2020/12/19 12:54:05;;;;;;;6.53;3.67;;;;;;;10.30;59.01;100069.19;3162643;28;20055;-78
2020/12/19 12:55:37;;;;;;;7.00;3.70;;;;;;;10.32;59.11;100065.53;3162744;28;20048;-80
2020/12/19 12:57:08;;;;;;;7.05;3.63;;;;;;;10.32;59.09;100068.22;3173714;27;20039;-79
2020/12/19 12:58:41;;;;;;;7.80;4.05;;;;;;;10.38;58.83;100068.53;3168452;27;20108;-79
2020/12/19 13:00:12;;;;;;;5.47;3.53;;;;;;;10.39;58.87;100064.00;3171848;28;20043;-79
2020/12/19 13:01:43;;;;;;;7.35;3.97;;;;;;;10.39;59.01;100058.66;3168053;27;20090;-79
2020/12/19 13:03:14;;;;;;;8.30;4.18;;;;;;;10.34;59.15;100064.41;3160478;28;20051;-80
2020/12/19 13:04:46;;;;;;;8.57;4.40;;;;;;;10.38;59.17;100073.88;3169045;27;20540;-80
2020/12/19 13:06:17;;;;;;;6.78;3.85;;;;;;;10.39;59.10;100064.84;3170158;27;20039;-79
2020/12/19 13:07:48;;;;;;;7.75;3.80;;;;;;;10.44;59.09;100067.94;3171053;28;20055;-80
2020/12/19 13:09:20;;;;;;;8.50;4.63;;;;;;;10.37;59.03;100068.63;3173332;27;20059;-80
2020/12/19 13:10:50;;;;;;;7.60;4.60;;;;;;;10.41;59.05;100067.38;3170635;27;20083;-80
2020/12/19 13:12:22;;;;;;;8.32;4.60;;;;;;;10.43;59.07;100055.56;3168343;27;20505;-80
2020/12/19 13:13:53;;;;;;;7.20;3.83;;;;;;;10.47;58.98;100063.31;3166135;28;20118;-80
2020/12/19 13:15:24;;;;;;;9.40;4.53;;;;;;;10.54;58.87;100056.38;3168510;28;20097;-80
2020/12/19 13:16:55;;;;;;;7.30;3.72;;;;;;;10.56;58.98;100065.94;3170703;27;20134;-80
2020/12/19 13:18:26;;;;;;;8.25;4.72;;;;;;;10.58;58.92;100063.97;3170988;28;20063;-80
2020/12/19 13:19:59;;;;;;;7.07;4.28;;;;;;;10.62;58.93;100059.19;3164389;28;20075;-80
2020/12/19 13:21:30;;;;;;;6.85;4.05;;;;;;;10.68;58.87;100052.41;3166696;28;20051;-80
2020/12/19 13:23:01;;;;;;;7.00;4.00;;;;;;;10.69;58.83;100054.94;3170723;27;20051;-80
2020/12/19 13:24:32;;;;;;;7.65;4.13;;;;;;;10.61;59.03;100054.81;3172488;28;20520;-80
2020/12/19 13:26:05;;;;;;;7.38;4.95;;;;;;;10.49;58.68;100056.81;3170456;28;20052;-80
2020/12/19 13:27:37;;;;;;;9.98;4.82;;;;;;;10.33;58.91;100048.53;3172657;27;20094;-79
2020/12/19 13:29:08;;;;;;;7.50;4.60;;;;;;;10.30;59.01;100050.50;3166930;28;20078;-80
2020/12/19 13:30:41;;;;;;;6.90;4.18;;;;;;;10.28;58.98;100048.97;3168652;28;20454;-80
2020/12/19 13:32:12;;;;;;;8.98;4.68;;;;;;;10.26;59.07;100043.72;3165662;28;20055;-79
2020/12/19 13:33:44;;;;;;;6.78;4.07;;;;;;;10.31;58.91;100048.66;3170091;28;20063;-80
2020/12/19 13:35:17;;;;;;;9.32;5.07;;;;;;;10.31;59.05;100045.97;3176288;27;20121;-80
2020/12/19 13:36:49;;;;;;;10.00;4.72;;;;;;;10.30;59.12;100055.84;3167265;27;20036;-80
2020/12/19 13:38:21;;;;;;;6.40;4.00;;;;;;;10.26;58.99;100042.91;3169308;27;20089;-80
2020/12/19 13:39:52;;;;;;;5.43;3.13;;;;;;;10.34;58.96;100056.38;3173023;28;20078;-80
2020/12/19 13:41:24;;;;;;;8.63;4.22;;;;;;;10.37;58.92;100052.59;3171591;27;20047;-80
2020/12/19 13:42:56;;;;;;;9.75;3.83;;;;;;;10.43;58.75;100055.56;3172347;27;20047;-80
2020/12/19 13:44:27;;;;;;;6.60;3.47;;;;;;;10.47;58.86;100055.28;3170206;27;20043;-80
2020/12/19 13:45:58;;;;;;;6.10;3.42;;;;;;;10.48;58.74;100059.66;3171276;27;20690;-80
2020/12/19 13:47:29;;;;;;;6.18;3.67;;;;;;;10.51;58.86;100056.66;3161006;28;20054;-80
2020/12/19 13:49:02;;;;;;;6.20;3.42;;;;;;;10.50;58.94;100054.97;3169515;27;20498;-80
2020/12/19 13:50:34;;;;;;;6.38;3.53;;;;;;;10.49;58.93;100056.81;3172485;27;20501;-80
2020/12/19 13:52:05;;;;;;;7.45;5.05;;;;;;;10.38;59.24;100052.50;3165575;27;20047;-80
2020/12/19 13:53:37;;;;;;;7.22;4.38;;;;;;;10.36;59.35;100051.75;3171624;28;20044;-80
2020/12/19 13:55:08;;;;;;;7.57;4.55;;;;;;;10.30;59.29;100053.16;3168532;28;20043;-80
2020/12/19 13:56:40;;;;;;;8.43;4.47;;;;;;;10.30;59.62;100054.97;3175117;27;20069;-80
2020/12/19 13:58:11;;;;;;;9.07;4.93;;;;;;;10.23;59.70;100052.06;3172490;27;20052;-80
2020/12/19 13:59:43;;;;;;;7.63;4.53;;;;;;;10.23;59.77;100048.53;3169933;27;20051;-80
2020/12/19 14:01:16;;;;;;;8.00;4.57;;;;;;;10.12;59.89;100063.72;3171240;27;20043;-80
2020/12/19 14:02:48;;;;;;;7.38;4.43;;;;;;;10.06;59.98;100064.28;3164674;27;20039;-80
2020/12/19 14:04:19;;;;;;;7.60;4.78;;;;;;;9.96;60.21;100066.13;3171533;27;20048;-80
2020/12/19 14:05:51;;;;;;;8.43;4.88;;;;;;;9.92;60.56;100064.72;3167682;27;20042;-80
2020/12/19 14:07:22;;;;;;;9.05;5.40;;;;;;;9.91;60.71;100068.38;3175106;27;20047;-80
2020/12/19 14:08:53;;;;;;;7.85;4.38;;;;;;;9.91;60.66;100071.03;3177432;27;20059;-80
2020/12/19 14:10:24;;;;;;;8.57;5.00;;;;;;;9.88;60.78;100071.31;3164290;28;20043;-80
2020/12/19 14:11:56;;;;;;;7.40;4.78;;;;;;;9.89;60.83;100073.00;3162834;28;20044;-80
2020/12/19 14:18:56;;;;;;;10.35;4.13;;;;;;;9.89;60.78;100084.50;3170552;27;20047;-80
2020/12/19 14:20:27;;;;;;;9.48;5.03;;;;;;;9.90;60.67;100083.53;3170410;27;20074;-80
2020/12/19 14:22:00;;;;;;;6.78;3.88;;;;;;;9.90;60.73;100074.69;3171473;27;20052;-80